Time;durP1;ratioP1;P1;durP2;ratioP2;P2;SDS_P1;SDS_P2;PMS_P1;PMS_P2;Temp;Humidity;BMP_temperature;BMP_pressure;BME280_temperature;BME280_humidity;BME280_pressure;Samples;Min_cycle;Max_cycle;Signal;HPM_P1;HPM_P2
2021/06/25 00:01:48;;;;;;;29.40;8.83;;;;;;;21.12;81.22;100134.44;1712162;82;21055;-73
2021/06/25 00:04:17;;;;;;;22.70;6.87;;;;;;;21.09;81.17;100136.01;1712412;83;21059;-73
2021/06/25 00:06:46;;;;;;;22.35;7.95;;;;;;;21.08;81.14;100137.49;1712405;82;21079;-73
2021/06/25 00:09:14;;;;;;;19.30;6.08;;;;;;;21.03;81.26;100132.51;1712209;83;21082;-72
2021/06/25 00:11:41;;;;;;;21.73;7.58;;;;;;;21.01;81.01;100133.12;1712261;83;21154;-71
2021/06/25 00:14:08;;;;;;;13.53;4.17;;;;;;;20.97;81.00;100141.02;1712508;83;21047;-71
2021/06/25 00:16:35;;;;;;;23.62;7.37;;;;;;;20.94;80.37;100139.94;1683384;82;21063;-72
2021/06/25 00:19:02;;;;;;;24.50;7.00;;;;;;;20.90;80.49;100146.02;1682506;85;21035;-73
2021/06/25 00:21:31;;;;;;;22.65;7.70;;;;;;;20.85;80.61;100134.83;1672163;85;21017;-71
2021/06/25 00:23:58;;;;;;;27.45;9.28;;;;;;;20.81;80.66;100134.70;1682197;85;22012;-71
2021/06/25 00:26:27;;;;;;;19.80;8.58;;;;;;;20.77;81.34;100129.72;1689718;83;21017;-71
2021/06/25 00:28:54;;;;;;;29.05;8.93;;;;;;;20.72;82.04;100133.61;1712389;83;21515;-72
2021/06/25 00:31:21;;;;;;;25.75;9.03;;;;;;;20.65;82.61;100135.06;1714701;83;21083;-72
2021/06/25 00:33:48;;;;;;;20.95;8.63;;;;;;;20.61;82.91;100134.94;1717724;82;21255;-72
2021/06/25 00:36:15;;;;;;;24.60;8.55;;;;;;;20.57;83.34;100138.85;1718424;83;21754;-72
2021/06/25 00:38:44;;;;;;;29.07;8.88;;;;;;;20.54;83.49;100131.89;1722704;83;21052;-72
2021/06/25 00:41:11;;;;;;;28.35;9.05;;;;;;;20.51;83.51;100132.60;1722836;83;21048;-72
2021/06/25 00:43:38;;;;;;;26.70;9.55;;;;;;;20.50;83.77;100134.92;1722793;83;21389;-71
2021/06/25 00:48:04;;;;;;;27.52;9.18;;;;;;;20.47;83.98;100124.45;1795721;79;22645;-73
2021/06/25 00:50:33;;;;;;;30.25;10.18;;;;;;;20.39;84.01;100125.06;1755451;80;21009;-71
2021/06/25 00:53:02;;;;;;;27.37;9.00;;;;;;;20.35;84.13;100122.73;1755830;81;21135;-72
2021/06/25 00:55:30;;;;;;;28.10;10.30;;;;;;;20.27;84.13;100118.84;1755609;81;20977;-71
2021/06/25 00:57:57;;;;;;;26.05;9.75;;;;;;;20.25;84.55;100124.80;1755586;81;21025;-71
2021/06/25 01:00:24;;;;;;;31.48;10.85;;;;;;;20.21;84.81;100123.81;1755357;81;21142;-71
2021/06/25 01:02:51;;;;;;;21.80;8.85;;;;;;;20.15;85.05;100122.45;1755830;81;21061;-69
2021/06/25 01:05:18;;;;;;;30.32;10.30;;;;;;;20.10;85.21;100127.30;1755508;81;21160;-71
2021/06/25 01:07:47;;;;;;;30.32;10.25;;;;;;;20.02;85.39;100125.23;1755363;81;21644;-70
2021/06/25 01:10:14;;;;;;;28.73;9.78;;;;;;;19.95;85.70;100125.83;1755487;81;21138;-71
2021/06/25 01:12:42;;;;;;;21.80;7.92;;;;;;;19.88;86.22;100122.27;1755574;81;21085;-71
2021/06/25 01:15:11;;;;;;;28.57;10.23;;;;;;;19.83;86.24;100120.44;1755492;81;21086;-70
2021/06/25 01:17:40;;;;;;;34.20;9.53;;;;;;;19.81;86.31;100118.37;1753666;81;22462;-71
2021/06/25 01:20:15;;;;;;;26.65;10.98;;;;;;;19.79;86.37;100122.97;1754916;81;21001;-68
2021/06/25 01:22:42;;;;;;;31.20;11.73;;;;;;;19.76;86.62;100117.88;1745204;81;21039;-69
2021/06/25 01:25:16;;;;;;;35.60;10.08;;;;;;;19.72;87.00;100117.72;1756032;81;21035;-70
2021/06/25 01:27:47;;;;;;;36.85;11.53;;;;;;;19.69;87.05;100119.27;1751220;81;21045;-69
2021/06/25 01:30:20;;;;;;;31.30;11.10;;;;;;;19.66;87.47;100110.98;1747331;82;21808;-68
2021/06/25 01:32:47;;;;;;;31.02;10.30;;;;;;;19.64;87.38;100110.23;1727221;82;21001;-69
2021/06/25 01:35:14;;;;;;;30.75;10.63;;;;;;;19.64;87.49;100109.39;1717606;83;21583;-67
2021/06/25 01:37:42;;;;;;;28.25;12.18;;;;;;;19.62;87.48;100112.66;1720625;83;21045;-69
2021/06/25 01:40:11;;;;;;;28.77;10.68;;;;;;;19.56;87.64;100105.13;1725537;82;21128;-68
2021/06/25 01:42:39;;;;;;;31.50;10.38;;;;;;;19.54;87.77;100109.23;1725768;83;21591;-69
2021/06/25 01:45:15;;;;;;;28.55;11.90;;;;;;;19.50;87.98;100105.93;1725568;83;21040;-69
2021/06/25 01:47:43;;;;;;;22.27;9.30;;;;;;;19.47;88.30;100109.33;1716138;83;21084;-69
2021/06/25 01:50:14;;;;;;;30.05;10.95;;;;;;;19.42;88.21;100100.33;1678235;85;21068;-70
2021/06/25 01:52:47;;;;;;;31.80;12.68;;;;;;;19.40;88.16;100100.92;1713204;83;21069;-70
2021/06/25 01:55:14;;;;;;;33.18;12.28;;;;;;;19.40;88.27;100100.07;1712978;82;21735;-70
2021/06/25 01:57:42;;;;;;;35.08;11.60;;;;;;;19.41;88.34;100104.44;1712650;83;21058;-70
2021/06/25 02:00:10;;;;;;;40.95;11.95;;;;;;;19.40;88.54;100096.91;1700921;83;21049;-71
2021/06/25 02:02:37;;;;;;;34.70;12.05;;;;;;;19.39;88.79;100089.84;1712869;83;21105;-72
2021/06/25 02:05:06;;;;;;;33.83;12.30;;;;;;;19.40;88.95;100093.39;1712402;83;21554;-71
2021/06/25 02:07:34;;;;;;;38.38;12.30;;;;;;;19.38;88.98;100090.83;1712542;82;21056;-70
2021/06/25 02:10:07;;;;;;;24.35;9.78;;;;;;;19.38;89.10;100089.49;1712268;83;21122;-70
2021/06/25 02:12:36;;;;;;;24.90;9.63;;;;;;;19.39;89.05;100095.68;1712427;82;21576;-70
2021/06/25 02:15:07;;;;;;;26.35;11.75;;;;;;;19.41;88.99;100098.60;1677781;85;21029;-70
2021/06/25 02:17:34;;;;;;;31.87;11.08;;;;;;;19.43;88.91;100092.66;1712770;83;21576;-69
2021/06/25 02:20:04;;;;;;;20.65;9.03;;;;;;;19.47;89.03;100091.97;1712368;83;21148;-70
2021/06/25 02:22:31;;;;;;;15.20;6.67;;;;;;;19.50;88.95;100091.73;1712379;83;21557;-69
2021/06/25 02:24:58;;;;;;;26.87;9.98;;;;;;;19.52;88.91;100092.95;1712404;82;21108;-70
2021/06/25 02:27:25;;;;;;;30.20;10.05;;;;;;;19.57;88.72;100094.80;1712227;83;21103;-70
2021/06/25 02:29:52;;;;;;;26.97;11.15;;;;;;;19.62;88.56;100099.30;1712760;83;21128;-71
2021/06/25 02:32:19;;;;;;;32.83;11.43;;;;;;;19.69;88.64;100104.58;1712208;82;21994;-69
2021/06/25 02:34:46;;;;;;;30.52;10.88;;;;;;;19.74;88.65;100102.89;1712245;83;21063;-70
2021/06/25 02:37:14;;;;;;;25.95;10.70;;;;;;;19.79;88.51;100106.94;1712298;82;21055;-69
2021/06/25 02:39:41;;;;;;;29.90;11.57;;;;;;;19.86;88.48;100109.51;1712608;82;21023;-70
2021/06/25 02:42:08;;;;;;;26.82;10.60;;;;;;;19.93;88.47;100107.22;1712206;83;21564;-70
2021/06/25 02:44:35;;;;;;;27.30;10.20;;;;;;;20.02;88.44;100112.36;1712584;83;22342;-71
2021/06/25 02:47:04;;;;;;;28.35;11.08;;;;;;;20.12;88.12;100114.67;1714646;82;21003;-69
2021/06/25 02:49:31;;;;;;;28.80;10.48;;;;;;;20.22;87.73;100117.02;1720069;83;21063;-69
2021/06/25 02:51:58;;;;;;;28.77;8.75;;;;;;;20.32;87.41;100113.14;1719964;83;21557;-71
2021/06/25 02:54:25;;;;;;;19.92;8.30;;;;;;;20.43;87.04;100124.31;1720078;83;21059;-71
2021/06/25 02:56:53;;;;;;;18.25;7.90;;;;;;;20.51;86.58;100115.21;1720051;82;21500;-72
2021/06/25 02:59:20;;;;;;;18.85;7.90;;;;;;;20.62;86.25;100115.75;1720047;83;21016;-72
2021/06/25 03:01:46;;;;;;;34.95;9.65;;;;;;;20.72;85.96;100115.37;1720253;83;21077;-73
2021/06/25 03:04:13;;;;;;;24.82;9.05;;;;;;;20.83;85.51;100115.36;1719962;83;21085;-74
2021/06/25 03:06:43;;;;;;;23.10;9.15;;;;;;;20.93;85.37;100111.45;1720005;83;21116;-74
2021/06/25 03:09:10;;;;;;;33.28;10.25;;;;;;;21.04;85.06;100118.13;1685285;85;21152;-72
2021/06/25 03:11:38;;;;;;;38.40;10.00;;;;;;;21.12;84.74;100107.66;1720011;82;21587;-73
2021/06/25 03:14:07;;;;;;;22.65;8.93;;;;;;;21.22;84.40;100109.59;1720151;83;21049;-74
2021/06/25 03:16:34;;;;;;;35.60;9.63;;;;;;;21.28;83.80;100111.74;1685323;85;21073;-72
2021/06/25 03:19:01;;;;;;;33.13;9.08;;;;;;;21.37;83.35;100116.34;1720042;83;21072;-73
2021/06/25 03:21:28;;;;;;;33.63;9.43;;;;;;;21.47;82.70;100111.98;1720136;83;21104;-74
2021/06/25 03:23:55;;;;;;;24.02;8.55;;;;;;;21.62;82.34;100122.39;1720023;83;21561;-73
2021/06/25 03:26:23;;;;;;;27.48;9.85;;;;;;;21.73;81.72;100116.98;1719756;83;21075;-72
2021/06/25 03:28:50;;;;;;;24.43;8.88;;;;;;;21.85;81.32;100118.63;1720192;83;21114;-72
2021/06/25 03:31:18;;;;;;;30.27;9.60;;;;;;;21.96;80.96;100125.27;1720195;82;21609;-73
2021/06/25 03:33:45;;;;;;;27.20;8.30;;;;;;;22.10;80.26;100119.23;1701690;83;21143;-73
2021/06/25 03:36:12;;;;;;;20.88;8.95;;;;;;;22.24;79.59;100126.97;1720179;82;21113;-72
2021/06/25 03:38:39;;;;;;;20.82;8.58;;;;;;;22.36;79.12;100125.94;1719990;83;21102;-72
2021/06/25 03:41:06;;;;;;;24.63;8.58;;;;;;;22.51;78.75;100117.03;1719831;83;21039;-73
2021/06/25 03:43:34;;;;;;;35.30;10.35;;;;;;;22.67;78.01;100115.19;1720035;83;21031;-71
2021/06/25 03:46:01;;;;;;;28.10;8.60;;;;;;;22.86;77.59;100113.56;1719809;83;22070;-70
2021/06/25 03:48:28;;;;;;;23.42;9.73;;;;;;;23.07;76.82;100114.36;1719643;82;21077;-79
2021/06/25 03:50:55;;;;;;;25.08;8.53;;;;;;;23.30;76.11;100112.78;1680907;84;21004;-80
2021/06/25 03:53:22;;;;;;;26.23;7.78;;;;;;;23.52;75.19;100130.00;1670624;84;21107;-81
2021/06/25 03:58:35;;;;;;;24.45;9.13;;;;;;;23.96;73.73;100117.00;1719709;82;21135;-82
2021/06/25 04:01:03;;;;;;;25.45;9.20;;;;;;;24.20;72.86;100111.64;1722972;82;21100;-82
2021/06/25 04:03:31;;;;;;;24.45;8.45;;;;;;;24.38;72.04;100112.59;1721118;82;21100;-74
2021/06/25 04:05:59;;;;;;;25.90;9.60;;;;;;;24.60;70.77;100110.08;1719301;83;21111;-77
2021/06/25 04:08:28;;;;;;;29.55;8.88;;;;;;;24.82;69.54;100103.95;1719998;83;21108;-76
2021/06/25 04:10:55;;;;;;;26.60;8.90;;;;;;;25.06;68.67;100093.47;1721165;83;21330;-76
2021/06/25 04:13:25;;;;;;;31.30;8.88;;;;;;;25.32;67.82;100090.06;1719630;83;21132;-75
2021/06/25 04:15:52;;;;;;;31.10;9.38;;;;;;;25.57;66.56;100084.92;1719624;83;21048;-75
2021/06/25 04:18:20;;;;;;;29.18;8.10;;;;;;;25.82;65.60;100083.28;1719390;83;21030;-77
2021/06/25 04:20:47;;;;;;;31.85;8.60;;;;;;;26.05;64.68;100081.80;1720153;83;21027;-84
2021/06/25 04:23:14;;;;;;;32.35;8.45;;;;;;;26.31;63.91;100076.89;1719720;83;21825;-82
2021/06/25 04:25:43;;;;;;;35.38;8.63;;;;;;;26.54;63.12;100065.91;1684400;85;21057;-82
2021/06/25 04:28:09;;;;;;;34.30;8.13;;;;;;;26.80;61.95;100056.88;1707193;82;21057;-83
2021/06/25 04:30:41;;;;;;;30.62;6.08;;;;;;;27.05;60.51;100055.61;1686498;85;21056;-86
2021/06/25 04:33:14;;;;;;;35.63;7.42;;;;;;;27.30;58.94;100060.09;1719472;83;21714;-85
2021/06/25 04:35:42;;;;;;;22.17;6.25;;;;;;;27.58;57.77;100055.23;1720420;83;21153;-78
2021/06/25 04:38:09;;;;;;;43.52;7.33;;;;;;;27.86;55.69;100057.62;1719870;83;21069;-77
2021/06/25 04:40:39;;;;;;;35.83;7.72;;;;;;;28.11;54.80;100055.69;1719928;83;21093;-79
2021/06/25 04:43:07;;;;;;;42.13;6.80;;;;;;;28.33;53.99;100055.99;1719804;83;21089;-79
2021/06/25 04:45:38;;;;;;;27.93;6.55;;;;;;;28.51;52.60;100053.94;1719131;83;21138;-79
2021/06/25 04:48:07;;;;;;;;;;;;;;;28.69;51.25;100056.41;1703319;83;21932;-79
2021/06/25 04:50:34;;;;;;;26.02;6.12;;;;;;;28.92;49.57;100051.04;1720212;83;20619;-78
2021/06/25 04:53:02;;;;;;;44.30;6.58;;;;;;;29.13;47.78;100055.02;1718529;83;21057;-77
2021/06/25 04:55:30;;;;;;;31.70;6.65;;;;;;;29.34;47.38;100057.92;1656082;86;21126;-78
2021/06/25 04:57:57;;;;;;;20.50;5.22;;;;;;;29.52;47.63;100060.33;1657207;86;21125;-75
2021/06/25 05:00:25;;;;;;;32.00;7.83;;;;;;;29.81;46.54;100056.88;1651590;86;21807;-74
2021/06/25 05:02:52;;;;;;;34.63;5.17;;;;;;;30.01;45.73;100055.84;1692754;84;21083;-77
2021/06/25 05:05:20;;;;;;;30.30;5.35;;;;;;;30.28;43.75;100055.77;1692914;84;21047;-74
2021/06/25 05:07:47;;;;;;;30.95;5.35;;;;;;;30.52;42.15;100053.78;1687938;84;21067;-78
2021/06/25 05:10:15;;;;;;;26.52;5.65;;;;;;;30.79;41.90;100056.86;1692729;84;21131;-76
2021/06/25 05:12:43;;;;;;;25.23;4.75;;;;;;;31.05;40.23;100046.30;1687500;84;21791;-76
2021/06/25 05:15:12;;;;;;;31.33;5.28;;;;;;;31.29;39.33;100048.33;1685734;84;21044;-75
2021/06/25 05:17:39;;;;;;;24.98;5.12;;;;;;;31.55;38.43;100051.34;1659042;86;21141;-77
2021/06/25 05:20:08;;;;;;;35.92;5.37;;;;;;;31.89;38.56;100049.75;1661055;86;21045;-77
2021/06/25 05:22:34;;;;;;;30.72;4.78;;;;;;;32.16;37.73;100052.19;1682695;85;21136;-77
2021/06/25 05:25:04;;;;;;;25.92;4.55;;;;;;;32.35;36.11;100046.53;1673779;85;21994;-77
2021/06/25 05:27:30;;;;;;;27.95;4.40;;;;;;;32.51;34.47;100040.43;1681984;85;21108;-77
2021/06/25 05:30:07;;;;;;;30.62;3.77;;;;;;;32.65;33.72;100050.37;1660288;86;21114;-78
2021/06/25 05:32:32;;;;;;;24.45;4.12;;;;;;;32.74;32.19;100053.25;1646079;86;21489;-78
2021/06/25 05:34:59;;;;;;;32.03;4.70;;;;;;;32.83;30.72;100052.55;1653247;85;21081;-79
2021/06/25 05:37:25;;;;;;;35.05;4.50;;;;;;;32.91;31.11;100051.52;1671552;85;21099;-77
2021/06/25 05:39:52;;;;;;;28.02;5.03;;;;;;;33.00;32.66;100055.75;1676866;85;21092;-79
2021/06/25 05:42:19;;;;;;;34.43;4.22;;;;;;;33.16;32.41;100060.02;1661783;85;21602;-75
2021/06/25 05:44:46;;;;;;;20.90;4.30;;;;;;;33.33;32.55;100059.11;1686232;84;21057;-77
2021/06/25 05:47:14;;;;;;;26.75;4.83;;;;;;;33.43;33.15;100061.75;1641744;86;21642;-77
2021/06/25 05:49:41;;;;;;;31.23;4.50;;;;;;;33.51;32.87;100062.07;1679154;85;21148;-77
2021/06/25 05:52:08;;;;;;;29.50;4.20;;;;;;;33.53;32.28;100064.07;1656153;85;21099;-77
2021/06/25 05:54:35;;;;;;;24.85;4.80;;;;;;;33.70;32.28;100062.32;1632902;86;21541;-77
2021/06/25 05:57:02;;;;;;;27.60;4.85;;;;;;;33.82;31.94;100064.73;1653214;85;21060;-78
2021/06/25 05:59:30;;;;;;;15.55;3.92;;;;;;;34.06;31.53;100063.25;1687548;84;21090;-76
2021/06/25 06:01:57;;;;;;;28.57;4.65;;;;;;;34.21;29.72;100063.91;1686374;84;21357;-78
2021/06/25 06:04:25;;;;;;;21.48;3.42;;;;;;;34.23;29.77;100057.70;1694730;83;21027;-79
2021/06/25 06:06:52;;;;;;;19.77;3.35;;;;;;;34.29;30.35;100062.83;1686661;84;21686;-76
2021/06/25 06:09:21;;;;;;;26.07;3.75;;;;;;;34.47;29.08;100057.52;1684619;85;21131;-77
2021/06/25 06:11:49;;;;;;;26.15;4.60;;;;;;;34.76;27.86;100056.69;1684206;84;21076;-78
2021/06/25 06:14:16;;;;;;;19.85;3.05;;;;;;;34.96;27.88;100060.71;1689075;84;21154;-78
2021/06/25 06:16:44;;;;;;;20.57;3.33;;;;;;;35.17;27.88;100070.52;1690678;84;21032;-77
2021/06/25 06:19:11;;;;;;;17.85;3.95;;;;;;;35.46;26.81;100065.50;1688390;84;21145;-77
2021/06/25 06:32:50;;;;;;;27.87;3.90;;;;;;;36.15;27.59;100072.47;1688437;84;21078;-79
2021/06/25 06:35:14;;;;;;;29.00;4.42;;;;;;;36.19;28.67;100073.16;1685748;83;21734;-77
2021/06/25 06:37:41;;;;;;;29.52;4.28;;;;;;;36.33;28.86;100079.34;1687846;83;21076;-78
2021/06/25 06:40:09;;;;;;;20.08;3.62;;;;;;;36.32;28.17;100079.02;1687739;84;21771;-77
2021/06/25 06:42:36;;;;;;;24.12;3.33;;;;;;;36.28;27.75;100084.64;1686107;84;21363;-78
2021/06/25 06:45:06;;;;;;;16.25;3.25;;;;;;;36.25;27.78;100093.33;1687347;84;21563;-77
2021/06/25 06:47:34;;;;;;;19.20;3.37;;;;;;;36.34;28.18;100094.71;1657838;85;21542;-77
2021/06/25 06:50:01;;;;;;;22.30;2.98;;;;;;;36.48;28.02;100096.23;1694496;83;21623;-77
2021/06/25 06:52:28;;;;;;;16.15;3.30;;;;;;;36.44;26.94;100092.27;1673502;84;21144;-75
2021/06/25 06:54:55;;;;;;;19.05;3.60;;;;;;;36.40;28.52;100099.30;1677811;84;21093;-77
2021/06/25 06:57:22;;;;;;;13.75;2.67;;;;;;;36.36;28.25;100094.50;1708501;82;21045;-78
2021/06/25 06:59:49;;;;;;;20.25;3.10;;;;;;;36.35;26.29;100095.00;1705622;83;21077;-77
2021/06/25 07:02:16;;;;;;;15.68;3.25;;;;;;;36.33;27.68;100094.42;1711616;82;21065;-78
2021/06/25 07:04:46;;;;;;;17.27;2.95;;;;;;;36.47;27.52;100093.20;1695884;82;21141;-77
2021/06/25 07:07:13;;;;;;;17.48;3.65;;;;;;;36.60;27.39;100087.28;1705405;83;21558;-78
2021/06/25 07:09:41;;;;;;;13.65;3.17;;;;;;;36.50;27.37;100090.53;1677672;84;21057;-77
2021/06/25 07:12:09;;;;;;;10.90;2.72;;;;;;;36.41;28.61;100092.73;1677804;84;21089;-78
2021/06/25 07:14:36;;;;;;;19.87;3.42;;;;;;;36.27;27.98;100092.58;1708623;83;21575;-77
2021/06/25 07:17:04;;;;;;;10.18;2.85;;;;;;;36.33;27.76;100093.05;1703792;82;21128;-77
2021/06/25 07:19:32;;;;;;;15.70;3.12;;;;;;;36.37;27.06;100087.39;1703292;83;21561;-78
2021/06/25 07:21:59;;;;;;;13.58;2.58;;;;;;;36.34;27.12;100091.97;1707071;83;21038;-78
2021/06/25 07:24:25;;;;;;;12.53;3.20;;;;;;;36.31;27.26;100089.69;1687376;84;21510;-77
2021/06/25 07:26:53;;;;;;;22.02;3.30;;;;;;;36.33;26.91;100087.56;1707998;83;21090;-76
2021/06/25 07:29:20;;;;;;;16.97;3.10;;;;;;;36.20;27.73;100085.78;1710541;83;21093;-77
2021/06/25 07:31:47;;;;;;;15.72;2.62;;;;;;;36.15;26.85;100083.44;1708703;82;21007;-77
2021/06/25 07:34:14;;;;;;;16.50;2.87;;;;;;;35.82;26.82;100081.27;1709382;83;21078;-78
2021/06/25 07:36:43;;;;;;;13.45;2.70;;;;;;;35.80;27.06;100075.68;1705510;82;21081;-77
2021/06/25 07:39:11;;;;;;;9.18;2.42;;;;;;;35.98;27.39;100075.73;1687756;84;21049;-79
2021/06/25 07:41:38;;;;;;;9.30;2.75;;;;;;;35.97;26.52;100072.69;1707690;83;22076;-79
2021/06/25 07:44:05;;;;;;;14.78;2.95;;;;;;;35.96;25.82;100071.03;1707965;83;21110;-80
2021/06/25 07:46:32;;;;;;;8.58;2.67;;;;;;;35.99;26.92;100070.57;1706156;82;21058;-79
2021/06/25 07:48:59;;;;;;;17.98;3.00;;;;;;;36.08;25.70;100072.50;1707192;83;21050;-80
2021/06/25 07:51:26;;;;;;;13.28;3.00;;;;;;;36.16;25.84;100066.73;1707099;82;21042;-81
2021/06/25 07:53:53;;;;;;;15.32;2.65;;;;;;;36.18;25.91;100065.98;1708688;83;21034;-80
2021/06/25 07:56:21;;;;;;;9.83;2.40;;;;;;;36.27;25.64;100057.77;1711945;83;21631;-79
2021/06/25 07:58:48;;;;;;;13.43;3.02;;;;;;;36.21;25.85;100062.77;1712526;82;21159;-80
2021/06/25 08:01:15;;;;;;;13.50;2.60;;;;;;;36.16;27.13;100061.25;1689849;83;21106;-81
2021/06/25 08:03:42;;;;;;;13.68;2.90;;;;;;;36.29;26.80;100064.41;1658951;86;21601;-81
2021/06/25 08:06:12;;;;;;;17.73;2.62;;;;;;;36.61;26.44;100065.66;1677459;84;21534;-81
2021/06/25 08:08:39;;;;;;;10.60;2.72;;;;;;;36.83;25.95;100065.47;1699326;84;21073;-79
2021/06/25 08:11:06;;;;;;;17.45;3.20;;;;;;;37.29;26.21;100064.00;1706001;83;21124;-80
2021/06/25 08:13:32;;;;;;;14.18;2.85;;;;;;;37.67;25.48;100065.58;1700153;82;21034;-81
2021/06/25 08:15:59;;;;;;;14.18;3.15;;;;;;;37.63;25.22;100065.73;1693926;82;21003;-80
2021/06/25 08:18:28;;;;;;;18.52;3.10;;;;;;;37.54;25.97;100066.61;1712069;83;21068;-75
2021/06/25 08:20:55;;;;;;;19.50;2.65;;;;;;;37.69;25.39;100066.17;1711866;83;21069;-76
2021/06/25 08:23:22;;;;;;;21.07;2.70;;;;;;;37.96;22.85;100061.58;1713626;83;21068;-77
2021/06/25 08:25:49;;;;;;;17.07;2.33;;;;;;;38.12;21.16;100071.05;1712709;83;21018;-77
2021/06/25 08:28:18;;;;;;;11.00;1.98;;;;;;;38.10;21.12;100075.44;1712314;83;21026;-75
2021/06/25 08:30:45;;;;;;;14.43;2.55;;;;;;;38.20;21.04;100070.16;1703187;82;21600;-75
2021/06/25 08:33:12;;;;;;;17.50;2.90;;;;;;;38.56;21.45;100068.23;1691659;83;21053;-80
2021/06/25 08:35:38;;;;;;;14.55;2.72;;;;;;;38.89;22.09;100069.44;1692525;83;21143;-83
2021/06/25 08:38:05;;;;;;;11.50;2.72;;;;;;;39.05;22.21;100064.28;1676945;85;21603;-83
2021/06/25 08:40:32;;;;;;;14.68;2.25;;;;;;;39.16;21.88;100071.63;1709344;83;21054;-81
2021/06/25 08:43:01;;;;;;;20.23;3.02;;;;;;;39.25;21.53;100067.38;1711208;83;22302;-73
2021/06/25 08:45:29;;;;;;;12.40;2.80;;;;;;;39.19;21.86;100073.91;1709011;83;21040;-77
2021/06/25 08:47:58;;;;;;;17.65;2.52;;;;;;;39.18;20.99;100073.59;1677550;84;21590;-82
2021/06/25 08:50:25;;;;;;;15.38;2.60;;;;;;;39.06;21.95;100074.19;1673729;83;22312;-79
2021/06/25 08:52:54;;;;;;;18.17;2.70;;;;;;;39.10;21.60;100067.13;1677489;85;21112;-73
2021/06/25 08:55:22;;;;;;;19.10;4.10;;;;;;;39.36;22.01;100067.86;1712882;83;21132;-73
2021/06/25 08:57:49;;;;;;;13.13;2.65;;;;;;;39.44;22.30;100062.54;1715325;82;20998;-72
2021/06/25 09:00:18;;;;;;;10.63;2.40;;;;;;;39.57;21.94;100064.98;1678017;84;21116;-74
2021/06/25 09:02:46;;;;;;;12.80;2.27;;;;;;;39.84;22.14;100056.88;1676119;85;21090;-74
2021/06/25 09:05:26;;;;;;;17.85;2.60;;;;;;;40.05;21.04;100055.81;1711934;83;21082;-73
2021/06/25 09:07:55;;;;;;;8.78;2.35;;;;;;;39.91;21.19;100055.88;1679813;84;21554;-75
2021/06/25 09:10:37;;;;;;;19.12;3.42;;;;;;;40.13;20.34;100051.25;1678736;84;21104;-73
2021/06/25 09:13:14;;;;;;;25.68;3.47;;;;;;;40.33;20.33;100044.37;1671100;85;21100;-79
2021/06/25 09:15:40;;;;;;;8.33;2.00;;;;;;;40.50;20.45;100053.44;1657107;85;21099;-75
2021/06/25 09:18:10;;;;;;;11.33;5.47;;;;;;;40.74;19.87;100046.30;1709128;83;21030;-73
2021/06/25 09:20:47;;;;;;;12.65;2.42;;;;;;;40.81;19.08;100047.75;1707945;83;22185;-74
2021/06/25 09:23:38;;;;;;;10.08;2.62;;;;;;;40.69;19.96;100044.30;1701793;83;21126;-74
2021/06/25 09:26:20;;;;;;;12.60;2.42;;;;;;;40.39;20.26;100044.18;1704089;83;21590;-73
2021/06/25 09:28:46;;;;;;;15.28;2.67;;;;;;;40.06;20.48;100043.71;1700044;83;21063;-74
2021/06/25 09:31:25;;;;;;;18.85;2.83;;;;;;;40.05;20.57;100042.02;1711118;83;21094;-73
2021/06/25 09:33:58;;;;;;;21.55;2.55;;;;;;;39.84;20.45;100043.09;1701507;83;21151;-76
2021/06/25 09:36:33;;;;;;;24.47;5.10;;;;;;;39.85;20.95;100035.69;1708307;83;21067;-74
2021/06/25 09:39:14;;;;;;;14.55;4.25;;;;;;;39.92;20.79;100047.89;1708168;83;21588;-75
2021/06/25 09:41:45;;;;;;;13.48;2.83;;;;;;;39.72;20.87;100042.33;1708098;83;21536;-75
2021/06/25 09:44:24;;;;;;;7.92;1.98;;;;;;;39.54;21.64;100043.41;1709773;82;21604;-74
2021/06/25 09:46:54;;;;;;;29.30;3.15;;;;;;;39.31;20.01;100048.50;1712710;83;21202;-74
2021/06/25 09:49:27;;;;;;;11.63;2.90;;;;;;;38.73;20.56;100052.33;1716985;81;21029;-75
2021/06/25 09:52:03;;;;;;;7.65;2.65;;;;;;;38.38;22.86;100047.73;1726057;82;21109;-73
2021/06/25 09:54:30;;;;;;;15.08;2.40;;;;;;;37.88;23.39;100047.66;1727212;83;21006;-77
2021/06/25 09:57:09;;;;;;;11.40;2.80;;;;;;;37.36;23.29;100057.05;1726347;83;21001;-76
2021/06/25 10:02:36;;;;;;;25.27;3.47;;;;;;;36.80;24.32;100050.84;1726187;83;21113;-77
2021/06/25 10:05:15;;;;;;;10.53;2.55;;;;;;;36.63;25.10;100049.28;1726408;83;21551;-75
2021/06/25 10:07:42;;;;;;;14.63;2.98;;;;;;;36.81;25.19;100047.05;1726456;83;21579;-76
2021/06/25 10:10:10;;;;;;;20.40;3.10;;;;;;;37.02;25.71;100034.73;1726383;83;21120;-75
2021/06/25 10:12:45;;;;;;;12.10;2.58;;;;;;;37.36;25.12;100037.31;1726633;82;21108;-76
2021/06/25 10:15:13;;;;;;;17.20;2.45;;;;;;;37.69;23.82;100033.20;1726342;83;21041;-76
2021/06/25 10:17:41;;;;;;;11.50;2.65;;;;;;;37.96;22.89;100029.45;1726834;83;21076;-74
2021/06/25 10:20:13;;;;;;;12.75;2.75;;;;;;;38.19;23.05;100024.50;1726571;83;21038;-76
2021/06/25 10:22:49;;;;;;;15.70;2.60;;;;;;;38.28;22.62;100030.98;1726826;83;21568;-76
2021/06/25 10:25:16;;;;;;;13.05;2.33;;;;;;;38.45;22.52;100030.55;1726422;83;21110;-77
2021/06/25 10:27:46;;;;;;;9.75;2.12;;;;;;;38.58;21.69;100025.33;1708797;83;21037;-78
2021/06/25 10:30:14;;;;;;;10.78;2.20;;;;;;;38.90;22.03;100024.30;1710418;83;21047;-79
2021/06/25 10:32:41;;;;;;;14.83;2.62;;;;;;;39.22;21.81;100023.82;1722161;83;21028;-76
2021/06/25 10:35:13;;;;;;;13.60;2.67;;;;;;;39.53;21.55;100018.89;1723254;83;21373;-78
2021/06/25 10:37:43;;;;;;;15.60;2.40;;;;;;;39.60;21.32;100014.86;1722575;83;21787;-78
2021/06/25 10:40:27;;;;;;;9.58;2.40;;;;;;;39.88;20.76;100024.69;1700988;83;21026;-76
2021/06/25 10:42:55;;;;;;;18.20;3.35;;;;;;;39.99;21.23;100019.63;1719923;83;21492;-78
2021/06/25 10:45:42;;;;;;;12.58;3.22;;;;;;;40.14;20.45;100012.92;1717730;82;21112;-76
2021/06/25 10:48:10;;;;;;;17.82;3.65;;;;;;;40.42;20.51;100015.23;1719831;83;21061;-77
2021/06/25 10:50:38;;;;;;;10.23;3.55;;;;;;;40.85;20.49;100021.85;1713323;83;21147;-77
2021/06/25 10:53:14;;;;;;;15.70;4.25;;;;;;;41.02;19.80;100017.08;1686084;84;21069;-76
2021/06/25 10:55:45;;;;;;;9.90;2.50;;;;;;;41.07;19.52;100012.97;1715998;81;21087;-74
2021/06/25 10:58:23;;;;;;;9.33;3.17;;;;;;;41.09;19.25;100027.36;1716548;83;20987;-80
2021/06/25 11:00:57;;;;;;;11.30;2.57;;;;;;;40.68;18.25;100022.75;1710512;83;21103;-78
2021/06/25 11:03:41;;;;;;;7.90;2.15;;;;;;;40.38;19.05;100012.18;1718913;83;21738;-74
2021/06/25 11:06:39;;;;;;;15.05;2.42;;;;;;;40.30;19.58;100017.30;1702165;83;21126;-72
2021/06/25 11:09:07;;;;;;;9.00;2.40;;;;;;;40.22;20.07;100011.66;1713574;83;21075;-76
2021/06/25 11:11:35;;;;;;;9.18;2.40;;;;;;;40.09;19.33;100010.09;1713622;83;21543;-74
2021/06/25 11:14:02;;;;;;;6.78;3.55;;;;;;;39.81;19.75;100016.05;1720154;83;21145;-72
2021/06/25 11:16:30;;;;;;;8.20;2.50;;;;;;;39.45;20.76;100006.34;1714930;83;21165;-75
2021/06/25 11:19:01;;;;;;;9.03;3.08;;;;;;;39.11;21.03;100008.20;1719413;83;21046;-70
2021/06/25 11:21:43;;;;;;;9.45;3.95;;;;;;;38.80;21.83;100004.86;1718502;83;21022;-72
2021/06/25 11:24:10;;;;;;;10.58;2.85;;;;;;;38.71;21.50;100003.58;1707875;83;21054;-71
2021/06/25 11:26:54;;;;;;;11.12;2.47;;;;;;;38.56;21.63;100004.95;1713986;83;21030;-83
2021/06/25 11:29:21;;;;;;;13.53;2.35;;;;;;;38.31;22.45;99995.61;1689781;83;21778;-71
2021/06/25 11:31:51;;;;;;;15.40;2.67;;;;;;;38.12;22.85;99999.05;1690295;84;28173;-79
2021/06/25 11:34:30;;;;;;;9.68;2.72;;;;;;;38.11;23.19;99990.49;1687306;83;21038;-80
2021/06/25 11:36:58;;;;;;;10.20;2.67;;;;;;;38.08;23.18;99996.48;1680173;84;21073;-82
2021/06/25 11:39:34;;;;;;;11.05;2.37;;;;;;;38.00;23.17;99998.18;1718302;83;21064;-80
2021/06/25 11:42:11;;;;;;;9.68;3.62;;;;;;;37.74;23.19;99993.48;1712115;83;21845;-80
2021/06/25 11:44:43;;;;;;;10.20;2.50;;;;;;;37.48;23.26;99996.64;1714331;82;21022;-80